createdAt,value
2022-10-12T00:01:31.833Z,29.42
2022-10-12T00:03:58.335Z,29.63
2022-10-12T00:06:25.282Z,28.75
2022-10-12T00:08:52.647Z,27.67
2022-10-12T00:11:20.819Z,27.08
2022-10-12T00:13:47.436Z,28.80
2022-10-12T00:16:15.123Z,28.05
2022-10-12T00:18:41.549Z,33.33
2022-10-12T00:21:09.823Z,26.90
2022-10-12T00:23:36.780Z,28.02
2022-10-12T00:26:04.587Z,27.50
2022-10-12T00:28:31.757Z,27.42
2022-10-12T00:30:58.326Z,28.42
2022-10-12T00:33:24.820Z,28.67
2022-10-12T00:35:53.144Z,30.33
2022-10-12T00:38:19.582Z,30.50
2022-10-12T00:40:46.039Z,31.80
2022-10-12T00:43:45.042Z,32.03
2022-10-12T00:46:14.087Z,26.30
2022-10-12T00:48:41.376Z,29.92
2022-10-12T00:51:09.234Z,30.88
2022-10-12T00:53:38.034Z,26.15
2022-10-12T00:56:07.077Z,28.20
2022-10-12T00:58:33.580Z,30.33
2022-10-12T01:01:01.705Z,27.55
2022-10-12T01:03:28.574Z,29.13
2022-10-12T01:05:55.416Z,31.33
2022-10-12T01:08:22.188Z,31.30
2022-10-12T01:10:48.892Z,30.42
2022-10-12T01:13:15.429Z,31.35
2022-10-12T01:15:57.147Z,33.55
2022-10-12T01:18:40.471Z,32.22
2022-10-12T01:21:25.891Z,31.58
2022-10-12T01:24:07.147Z,30.17
2022-10-12T01:26:56.894Z,31.33
2022-10-12T01:29:43.582Z,33.83
2022-10-12T01:32:22.405Z,34.78
2022-10-12T01:34:55.047Z,34.35
2022-10-12T01:37:24.137Z,37.13
2022-10-12T01:39:53.830Z,37.75
2022-10-12T01:42:21.995Z,33.05
2022-10-12T01:44:48.476Z,35.35
2022-10-12T01:47:14.944Z,33.63
2022-10-12T01:49:41.426Z,37.03
2022-10-12T01:52:18.860Z,37.28
2022-10-12T01:55:00.519Z,34.05
2022-10-12T01:58:02.659Z,38.58
2022-10-12T02:00:30.327Z,37.55
2022-10-12T02:02:59.705Z,38.80
2022-10-12T02:05:26.197Z,38.88
2022-10-12T02:08:11.210Z,38.33
2022-10-12T02:10:41.141Z,39.22
2022-10-12T02:13:09.936Z,39.65
2022-10-12T02:15:37.547Z,41.90
2022-10-12T02:18:04.648Z,40.60
2022-10-12T02:20:31.640Z,38.50
2022-10-12T02:22:58.570Z,43.95
2022-10-12T02:25:25.830Z,42.40
2022-10-12T02:27:55.856Z,43.20
2022-10-12T02:30:22.412Z,42.45
2022-10-12T02:32:51.585Z,41.25
2022-10-12T02:35:21.123Z,43.22
2022-10-12T02:38:00.491Z,44.67
2022-10-12T02:40:47.153Z,43.15
2022-10-12T02:43:21.371Z,45.50
2022-10-12T02:45:48.472Z,42.88
2022-10-12T02:48:19.614Z,48.08
2022-10-12T02:50:46.663Z,44.17
2022-10-12T02:53:13.293Z,44.15
2022-10-12T02:55:53.514Z,48.08
2022-10-12T02:58:20.211Z,47.30
2022-10-12T03:00:46.943Z,47.40
2022-10-12T03:03:13.478Z,42.78
2022-10-12T03:05:39.937Z,43.60
2022-10-12T03:08:06.382Z,47.28
2022-10-12T03:10:32.916Z,42.17
2022-10-12T03:12:59.371Z,45.10
2022-10-12T03:18:09.895Z,40.42
2022-10-12T03:20:36.683Z,43.38
2022-10-12T03:23:03.192Z,46.20
2022-10-12T03:25:29.667Z,51.28
2022-10-12T03:27:56.148Z,43.05
2022-10-12T03:30:22.645Z,46.97
2022-10-12T03:32:49.182Z,42.08
2022-10-12T03:35:15.811Z,46.47
2022-10-12T03:37:42.492Z,49.45
2022-10-12T03:40:09.407Z,48.97
2022-10-12T03:42:35.849Z,46.05
2022-10-12T03:45:02.331Z,52.28
2022-10-12T03:47:28.759Z,49.47
2022-10-12T03:49:55.198Z,43.38
2022-10-12T03:52:21.703Z,53.35
2022-10-12T03:54:48.177Z,48.25
2022-10-12T03:57:14.634Z,49.95
2022-10-12T03:59:41.146Z,55.10
2022-10-12T04:02:07.603Z,50.60
2022-10-12T04:04:34.058Z,54.25
2022-10-12T04:07:00.536Z,47.85
2022-10-12T04:09:26.989Z,50.30
2022-10-12T04:11:53.439Z,49.80
2022-10-12T04:14:19.940Z,56.97
2022-10-12T04:16:46.389Z,57.00
2022-10-12T04:19:13.545Z,49.58
2022-10-12T04:21:40.366Z,51.85
2022-10-12T04:24:07.132Z,65.35
2022-10-12T04:26:33.632Z,58.78
2022-10-12T04:29:00.119Z,50.22
2022-10-12T04:31:26.565Z,48.92
2022-10-12T04:33:56.962Z,59.70
2022-10-12T04:36:24.409Z,49.60
2022-10-12T04:38:50.894Z,44.47
2022-10-12T04:41:17.478Z,45.15
2022-10-12T04:43:43.916Z,50.20
2022-10-12T04:46:10.457Z,48.28
2022-10-12T04:48:36.903Z,46.42
2022-10-12T04:51:03.646Z,60.15
2022-10-12T04:53:30.120Z,44.10
2022-10-12T04:55:56.592Z,42.00
2022-10-12T04:58:23.036Z,49.33
2022-10-12T05:00:49.499Z,49.55
2022-10-12T05:03:16.154Z,55.20
2022-10-12T05:05:44.303Z,51.70
2022-10-12T05:08:10.742Z,43.92
2022-10-12T05:10:37.407Z,44.30
2022-10-12T05:13:03.825Z,41.40
2022-10-12T05:15:30.271Z,39.03
2022-10-12T05:17:56.755Z,38.22
2022-10-12T05:20:23.198Z,36.38
2022-10-12T05:22:49.674Z,38.65
2022-10-12T05:25:16.232Z,41.70
2022-10-12T05:27:42.851Z,55.72
2022-10-12T05:30:09.561Z,57.63
2022-10-12T05:32:36.309Z,43.22
2022-10-12T05:35:03.231Z,36.63
2022-10-12T05:37:29.689Z,38.95
2022-10-12T05:39:56.147Z,42.10
2022-10-12T05:42:22.595Z,35.88
2022-10-12T05:44:49.066Z,41.22
2022-10-12T05:47:15.666Z,42.80
2022-10-12T05:49:42.094Z,39.75
2022-10-12T05:52:09.763Z,38.13
2022-10-12T05:54:36.246Z,37.15
2022-10-12T05:57:02.686Z,36.75
2022-10-12T05:59:29.219Z,47.97
2022-10-12T06:01:55.848Z,39.03
2022-10-12T06:04:22.376Z,42.38
2022-10-12T06:06:48.928Z,43.63
2022-10-12T06:09:15.484Z,37.97
2022-10-12T06:11:41.959Z,41.38
2022-10-12T06:14:08.439Z,40.78
2022-10-12T06:16:34.908Z,42.03
2022-10-12T06:19:01.441Z,34.63
2022-10-12T06:21:33.644Z,37.08
2022-10-12T06:24:00.846Z,39.47
2022-10-12T06:26:27.581Z,34.80
2022-10-12T06:28:54.129Z,32.97
2022-10-12T06:31:20.760Z,37.42
2022-10-12T06:33:47.324Z,29.50
2022-10-12T06:36:13.773Z,33.92
2022-10-12T06:38:40.193Z,26.70
2022-10-12T06:41:06.692Z,35.67
2022-10-12T06:43:33.135Z,28.27
2022-10-12T06:46:01.825Z,25.85
2022-10-12T06:48:28.679Z,31.70
2022-10-12T06:50:55.185Z,30.58
2022-10-12T06:53:22.339Z,29.35
2022-10-12T06:55:49.027Z,28.33
2022-10-12T06:58:15.517Z,33.00
2022-10-12T07:00:42.032Z,28.00
2022-10-12T07:03:11.151Z,26.52
2022-10-12T07:05:37.590Z,25.80
2022-10-12T07:08:04.178Z,26.55
2022-10-12T07:10:30.656Z,26.63
2022-10-12T07:12:57.137Z,25.10
2022-10-12T07:15:23.831Z,26.08
2022-10-12T07:17:50.602Z,26.65
2022-10-12T07:20:17.096Z,27.48
2022-10-12T07:22:44.659Z,27.58
2022-10-12T07:25:11.255Z,33.70
2022-10-12T07:27:38.022Z,26.25
2022-10-12T07:30:05.703Z,25.50
2022-10-12T07:32:32.208Z,29.83
2022-10-12T07:34:58.634Z,25.73
2022-10-12T07:37:25.550Z,30.10
2022-10-12T07:39:57.195Z,28.48
2022-10-12T07:42:24.442Z,28.88
2022-10-12T07:44:50.978Z,24.85
2022-10-12T07:47:17.822Z,25.35
2022-10-12T07:49:44.265Z,27.13
2022-10-12T07:52:10.796Z,29.42
2022-10-12T07:54:37.227Z,29.95
2022-10-12T07:57:03.708Z,28.75
2022-10-12T07:59:30.410Z,29.85
2022-10-12T08:01:56.898Z,28.05
2022-10-12T08:04:23.357Z,27.40
2022-10-12T08:06:49.876Z,29.98
2022-10-12T08:09:16.355Z,23.42
2022-10-12T08:11:42.864Z,21.63
2022-10-12T08:14:15.906Z,27.60
2022-10-12T08:16:43.644Z,28.85
2022-10-12T08:19:10.394Z,24.52
2022-10-12T08:21:36.936Z,27.77
2022-10-12T08:24:03.438Z,24.60
2022-10-12T08:26:30.382Z,29.33
2022-10-12T08:28:56.969Z,20.02
2022-10-12T08:31:23.476Z,20.88
2022-10-12T08:33:49.932Z,18.55
2022-10-12T08:36:16.721Z,22.48
2022-10-12T08:38:48.694Z,19.83
2022-10-12T08:41:33.788Z,24.58
2022-10-12T08:44:03.252Z,17.08
2022-10-12T08:46:29.957Z,20.38
2022-10-12T08:49:03.053Z,16.73
2022-10-12T08:51:30.926Z,16.85
2022-10-12T08:53:59.783Z,20.08
2022-10-12T08:56:26.322Z,20.58
2022-10-12T09:01:41.281Z,13.60
2022-10-12T09:04:25.950Z,19.85
2022-10-12T09:06:58.651Z,17.33
2022-10-12T09:09:30.898Z,15.88
2022-10-12T09:12:30.087Z,16.80
2022-10-12T09:15:00.601Z,20.95
2022-10-12T09:17:29.863Z,13.55
2022-10-12T09:20:01.571Z,11.32
2022-10-12T09:22:28.576Z,14.70
2022-10-12T09:24:56.603Z,17.63
2022-10-12T09:27:23.280Z,17.08
2022-10-12T09:29:51.345Z,17.15
2022-10-12T09:32:17.792Z,17.60
2022-10-12T09:34:45.110Z,16.83
2022-10-12T09:37:21.808Z,16.40
2022-10-12T09:39:48.491Z,23.83
2022-10-12T09:42:15.240Z,19.67
2022-10-12T09:45:01.579Z,14.85
2022-10-12T09:47:30.257Z,16.25
2022-10-12T09:50:06.781Z,13.52
2022-10-12T09:52:36.512Z,17.73
2022-10-12T09:55:23.259Z,13.85
2022-10-12T09:57:54.425Z,16.00
2022-10-12T10:00:28.786Z,16.08
2022-10-12T10:02:56.219Z,18.70
2022-10-12T10:05:25.083Z,20.23
2022-10-12T10:07:51.743Z,16.17
2022-10-12T10:10:29.697Z,19.02
2022-10-12T10:12:59.115Z,15.82
2022-10-12T10:15:25.580Z,13.85
2022-10-12T10:17:54.863Z,14.32
2022-10-12T10:20:24.286Z,16.92
2022-10-12T10:22:50.737Z,15.82
2022-10-12T10:25:21.094Z,11.65
2022-10-12T10:27:47.748Z,13.05
2022-10-12T10:30:29.898Z,14.23
2022-10-12T10:33:07.619Z,14.68
2022-10-12T10:35:34.138Z,13.52
2022-10-12T10:38:01.052Z,12.63
2022-10-12T10:40:29.158Z,13.63
2022-10-12T10:42:57.022Z,12.32
2022-10-12T10:45:25.435Z,14.88
2022-10-12T10:47:56.452Z,13.55
2022-10-12T10:50:26.997Z,14.20
2022-10-12T10:52:56.879Z,10.82
2022-10-12T10:55:31.859Z,11.60
2022-10-12T10:58:12.905Z,10.07
2022-10-12T11:00:40.930Z,11.82
2022-10-12T11:03:18.674Z,11.50
2022-10-12T11:05:46.585Z,13.30
2022-10-12T11:08:15.990Z,16.92
2022-10-12T11:10:45.228Z,11.40
2022-10-12T11:13:23.024Z,14.13
2022-10-12T11:15:55.668Z,10.98
2022-10-12T11:18:25.878Z,9.52
2022-10-12T11:20:56.361Z,11.43
2022-10-12T11:23:29.855Z,10.38
2022-10-12T11:25:56.295Z,11.30
2022-10-12T11:28:24.501Z,12.82
2022-10-12T11:30:53.247Z,11.13
2022-10-12T11:33:25.641Z,11.05
2022-10-12T11:35:53.141Z,10.88
2022-10-12T11:38:54.813Z,11.95
2022-10-12T11:41:35.282Z,10.88
2022-10-12T11:44:05.083Z,10.77
2022-10-12T11:46:47.351Z,12.52
2022-10-12T11:49:17.164Z,8.40
2022-10-12T11:51:46.976Z,9.93
2022-10-12T11:54:22.772Z,11.55
2022-10-12T11:56:51.738Z,8.50
2022-10-12T11:59:24.240Z,9.65
2022-10-12T12:01:54.172Z,8.85
2022-10-12T12:07:23.168Z,11.48
2022-10-12T12:09:51.026Z,9.60
2022-10-12T12:12:26.192Z,8.73
2022-10-12T12:14:55.780Z,8.88
2022-10-12T12:17:22.288Z,9.98
2022-10-12T12:19:49.937Z,10.63
2022-10-12T12:22:32.617Z,9.75
2022-10-12T12:25:06.927Z,9.65
2022-10-12T12:27:33.429Z,9.18
2022-10-12T12:30:01.695Z,10.40
2022-10-12T12:32:40.956Z,8.02
2022-10-12T12:35:17.916Z,9.82
2022-10-12T12:37:44.671Z,10.85
2022-10-12T12:40:20.830Z,13.40
2022-10-12T12:42:47.363Z,10.95
2022-10-12T12:45:46.026Z,10.88
2022-10-12T12:48:12.490Z,11.20
2022-10-12T12:50:39.879Z,12.98
2022-10-12T12:53:08.512Z,10.57
2022-10-12T12:55:41.262Z,11.45
2022-10-12T12:58:10.552Z,14.57
2022-10-12T13:00:55.363Z,11.48
2022-10-12T13:03:35.722Z,10.50
2022-10-12T13:06:25.609Z,14.55
2022-10-12T13:08:55.111Z,10.30
2022-10-12T13:11:47.383Z,12.75
2022-10-12T13:14:24.070Z,10.52
2022-10-12T13:19:49.057Z,12.93
2022-10-12T13:22:19.375Z,12.13
2022-10-12T13:24:47.524Z,10.98
2022-10-12T13:27:18.234Z,12.40
2022-10-12T13:29:59.464Z,10.10
2022-10-12T13:32:32.064Z,14.70
2022-10-12T13:35:03.491Z,12.90
2022-10-12T13:37:31.253Z,11.63
2022-10-12T13:39:58.051Z,10.75
2022-10-12T13:42:26.741Z,13.40
2022-10-12T13:44:53.427Z,12.75
2022-10-12T13:47:30.984Z,13.60
2022-10-12T13:49:58.020Z,13.05
2022-10-12T13:52:31.685Z,10.68
2022-10-12T13:54:59.062Z,11.30
2022-10-12T13:57:46.612Z,12.57
2022-10-12T14:00:16.480Z,11.38
2022-10-12T14:02:43.670Z,13.35
2022-10-12T14:05:17.720Z,12.30
2022-10-12T14:07:44.626Z,11.77
2022-10-12T14:10:22.355Z,12.35
2022-10-12T14:12:49.944Z,13.40
2022-10-12T14:15:16.844Z,12.70
2022-10-12T14:17:47.237Z,12.35
2022-10-12T14:20:15.144Z,13.25
2022-10-12T14:22:46.331Z,11.32
2022-10-12T14:25:20.505Z,12.60
2022-10-12T14:27:52.719Z,16.65
2022-10-12T14:30:21.132Z,14.93
2022-10-12T14:32:48.155Z,12.90
2022-10-12T14:35:21.195Z,11.38
2022-10-12T14:37:48.025Z,13.65
2022-10-12T14:40:20.828Z,13.80
2022-10-12T14:43:00.634Z,14.27
2022-10-12T14:45:27.171Z,14.52
2022-10-12T14:47:53.849Z,15.30
2022-10-12T14:50:21.371Z,13.48
2022-10-12T14:52:56.387Z,12.50
2022-10-12T14:55:24.509Z,15.13
2022-10-12T14:57:51.589Z,13.55
2022-10-12T15:00:22.694Z,15.55
2022-10-12T15:02:49.779Z,12.95
2022-10-12T15:05:17.711Z,12.52
2022-10-12T15:07:45.491Z,17.27
2022-10-12T15:10:12.083Z,15.80
2022-10-12T15:12:38.535Z,15.57
2022-10-12T15:15:15.056Z,17.45
2022-10-12T15:17:41.542Z,14.57
2022-10-12T15:20:09.075Z,17.02
2022-10-12T15:22:35.569Z,14.35
2022-10-12T15:25:02.067Z,13.00
2022-10-12T15:27:28.556Z,12.80
2022-10-12T15:29:54.993Z,16.17
2022-10-12T15:32:21.835Z,18.52
2022-10-12T15:34:48.378Z,15.38
2022-10-12T15:37:14.949Z,19.40
2022-10-12T15:39:42.726Z,18.23
2022-10-12T15:42:10.467Z,17.63
2022-10-12T15:44:39.409Z,20.45
2022-10-12T15:47:05.910Z,18.75
2022-10-12T15:49:32.537Z,20.33
2022-10-12T15:52:00.208Z,19.63
2022-10-12T15:54:26.660Z,18.85
2022-10-12T15:56:53.201Z,17.17
2022-10-12T15:59:19.645Z,14.07
2022-10-12T16:01:46.139Z,14.35
2022-10-12T16:04:14.649Z,14.43
2022-10-12T16:06:41.290Z,14.32
2022-10-12T16:09:07.807Z,16.92
2022-10-12T16:11:34.302Z,14.82
2022-10-12T16:14:01.924Z,15.55
2022-10-12T16:16:30.098Z,15.45
2022-10-12T16:18:56.752Z,14.55
2022-10-12T16:21:23.340Z,18.45
2022-10-12T16:23:49.804Z,17.10
2022-10-12T16:26:16.671Z,16.00
2022-10-12T16:28:43.201Z,15.98
2022-10-12T16:31:11.318Z,15.57
2022-10-12T16:33:38.121Z,18.70
2022-10-12T16:36:09.075Z,16.70
2022-10-12T16:38:35.540Z,20.33
2022-10-12T16:41:07.301Z,17.70
2022-10-12T16:43:33.746Z,19.60
2022-10-12T16:46:00.195Z,16.90
2022-10-12T16:48:26.735Z,19.42
2022-10-12T16:50:53.201Z,21.65
2022-10-12T16:53:19.652Z,18.70
2022-10-12T16:55:46.638Z,17.45
2022-10-12T16:58:13.085Z,19.85
2022-10-12T17:00:41.070Z,20.52
2022-10-12T17:03:08.809Z,19.63
2022-10-12T17:05:35.244Z,22.33
2022-10-12T17:08:01.703Z,21.52
2022-10-12T17:10:28.218Z,21.23
2022-10-12T17:12:54.701Z,24.08
2022-10-12T17:15:21.190Z,27.85
2022-10-12T17:17:47.688Z,21.83
2022-10-12T17:20:14.112Z,25.35
2022-10-12T17:22:40.666Z,28.45
2022-10-12T17:25:07.337Z,26.20
2022-10-12T17:27:33.813Z,26.65
2022-10-12T17:30:00.303Z,30.88
2022-10-12T17:32:27.037Z,25.40
2022-10-12T17:34:53.494Z,23.85
2022-10-12T17:37:21.884Z,28.80
2022-10-12T17:39:50.372Z,25.20
2022-10-12T17:42:18.126Z,21.33
2022-10-12T17:44:44.921Z,21.90
2022-10-12T17:47:11.463Z,22.10
2022-10-12T17:49:37.976Z,25.70
2022-10-12T17:52:04.496Z,23.52
2022-10-12T17:54:32.693Z,24.27
2022-10-12T17:56:59.208Z,22.15
2022-10-12T17:59:25.874Z,23.30
2022-10-12T18:01:52.547Z,24.88
2022-10-12T18:04:19.526Z,23.95
2022-10-12T18:06:45.977Z,26.13
2022-10-12T18:09:12.788Z,26.90
2022-10-12T18:11:39.478Z,22.58
2022-10-12T18:14:08.751Z,25.95
2022-10-12T18:16:35.351Z,21.67
2022-10-12T18:19:03.459Z,20.95
2022-10-12T18:21:31.458Z,20.65
2022-10-12T18:23:58.351Z,19.70
2022-10-12T18:26:25.034Z,25.92
2022-10-12T18:28:52.712Z,24.45
2022-10-12T18:31:23.589Z,27.77
2022-10-12T18:33:50.128Z,24.70
2022-10-12T18:36:17.192Z,27.15
2022-10-12T18:38:43.817Z,22.25
2022-10-12T18:41:15.411Z,26.33
2022-10-12T18:43:42.016Z,23.98
2022-10-12T18:46:09.772Z,27.85
2022-10-12T18:48:36.222Z,24.33
2022-10-12T18:51:04.346Z,27.55
2022-10-12T18:53:31.503Z,27.45
2022-10-12T18:55:57.964Z,22.40
2022-10-12T18:58:24.401Z,23.92
2022-10-12T19:00:51.032Z,28.10
2022-10-12T19:03:17.597Z,25.15
2022-10-12T19:05:44.066Z,26.00
2022-10-12T19:08:10.877Z,26.40
2022-10-12T19:10:39.589Z,27.13
2022-10-12T19:13:06.043Z,25.13
2022-10-12T19:15:32.575Z,25.98
2022-10-12T19:17:59.030Z,28.80
2022-10-12T19:20:25.485Z,25.27
2022-10-12T19:22:52.035Z,29.17
2022-10-12T19:25:18.512Z,29.02
2022-10-12T19:27:44.969Z,33.20
2022-10-12T19:30:11.664Z,27.40
2022-10-12T19:32:38.126Z,26.35
2022-10-12T19:35:04.843Z,28.17
2022-10-12T19:37:31.443Z,31.40
2022-10-12T19:39:57.916Z,29.73
2022-10-12T19:42:24.652Z,29.88
2022-10-12T19:44:51.376Z,28.90
2022-10-12T19:47:17.830Z,32.05
2022-10-12T19:49:45.445Z,33.10
2022-10-12T19:52:12.208Z,32.20
2022-10-12T19:54:38.653Z,27.75
2022-10-12T19:57:05.208Z,34.80
2022-10-12T19:59:31.878Z,30.40
2022-10-12T20:01:58.335Z,30.27
2022-10-12T20:04:24.791Z,29.83
2022-10-12T20:06:51.456Z,31.83
2022-10-12T20:09:18.069Z,27.95
2022-10-12T20:11:44.587Z,31.35
2022-10-12T20:14:11.280Z,20.92
2022-10-12T20:16:37.886Z,17.75
2022-10-12T20:19:04.745Z,15.82
2022-10-12T20:21:31.399Z,17.25
2022-10-12T20:23:57.853Z,16.08
2022-10-12T20:26:25.795Z,15.07
2022-10-12T20:28:53.636Z,17.35
2022-10-12T20:31:23.389Z,11.40
2022-10-12T20:33:53.027Z,15.48
2022-10-12T20:36:24.115Z,15.40
2022-10-12T20:38:50.602Z,11.93
2022-10-12T20:41:17.890Z,15.52
2022-10-12T20:43:44.789Z,14.23
2022-10-12T20:46:15.164Z,14.20
2022-10-12T20:48:41.909Z,12.77
2022-10-12T20:51:08.968Z,15.82
2022-10-12T20:53:35.687Z,16.30
2022-10-12T20:56:08.890Z,22.38
2022-10-12T20:58:35.484Z,24.13
2022-10-12T21:01:02.962Z,21.45
2022-10-12T21:03:29.518Z,23.52
2022-10-12T21:05:55.989Z,26.67
2022-10-12T21:08:22.449Z,25.95
2022-10-12T21:10:48.866Z,29.42
2022-10-12T21:13:15.325Z,28.30
2022-10-12T21:15:49.003Z,32.28
2022-10-12T21:18:15.456Z,26.88
2022-10-12T21:20:41.942Z,20.52
2022-10-12T21:23:08.392Z,16.05
2022-10-12T21:25:34.807Z,16.08
2022-10-12T21:28:01.341Z,19.92
2022-10-12T21:30:27.775Z,17.58
2022-10-12T21:32:54.207Z,15.82
2022-10-12T21:35:20.640Z,17.50
2022-10-12T21:37:47.097Z,10.93
2022-10-12T21:40:13.627Z,16.05
2022-10-12T21:42:40.074Z,16.27
2022-10-12T21:45:06.744Z,16.13
2022-10-12T21:47:33.226Z,12.45
2022-10-12T21:49:59.678Z,13.75
2022-10-12T21:52:26.153Z,17.38
2022-10-12T21:54:52.586Z,15.23
2022-10-12T21:57:19.013Z,16.73
2022-10-12T21:59:50.207Z,15.38
2022-10-12T22:02:16.943Z,14.95
2022-10-12T22:04:43.690Z,14.02
2022-10-12T22:07:10.231Z,20.25
2022-10-12T22:09:36.751Z,18.40
2022-10-12T22:12:03.283Z,17.60
2022-10-12T22:14:29.764Z,18.55
2022-10-12T22:16:56.249Z,19.23
2022-10-12T22:19:22.830Z,19.40
2022-10-12T22:21:50.012Z,18.83
2022-10-12T22:24:16.771Z,20.05
2022-10-12T22:26:43.263Z,19.05
2022-10-12T22:29:10.666Z,22.02
2022-10-12T22:31:38.803Z,22.90
2022-10-12T22:34:05.348Z,27.15
2022-10-12T22:36:32.000Z,46.95
2022-10-12T22:38:58.549Z,41.20
2022-10-12T22:41:25.430Z,41.80
2022-10-12T22:43:53.355Z,38.47
2022-10-12T22:46:20.824Z,37.83
2022-10-12T22:48:47.622Z,41.33
2022-10-12T22:51:16.306Z,40.67
2022-10-12T22:53:42.747Z,42.60
2022-10-12T22:56:12.452Z,43.58
2022-10-12T22:58:39.017Z,41.47
2022-10-12T23:01:09.965Z,42.35
2022-10-12T23:03:36.913Z,40.63
2022-10-12T23:06:04.118Z,35.95
2022-10-12T23:08:30.993Z,36.42
2022-10-12T23:11:05.534Z,37.97
2022-10-12T23:13:32.388Z,38.58
2022-10-12T23:16:06.812Z,34.88
2022-10-12T23:18:34.201Z,34.30
2022-10-12T23:21:03.111Z,35.17
2022-10-12T23:23:29.552Z,33.92
2022-10-12T23:26:03.695Z,34.88
2022-10-12T23:28:30.240Z,35.75
2022-10-12T23:30:56.765Z,38.15
2022-10-12T23:33:23.357Z,39.30
2022-10-12T23:36:00.386Z,35.67
2022-10-12T23:38:28.666Z,37.60
2022-10-12T23:40:55.157Z,37.92
2022-10-12T23:43:21.716Z,38.95
2022-10-12T23:45:48.235Z,34.25
2022-10-12T23:48:15.324Z,31.63
2022-10-12T23:50:42.073Z,31.58
2022-10-12T23:53:08.669Z,31.42
2022-10-12T23:55:35.680Z,33.35
2022-10-12T23:58:02.285Z,31.40
